Terminal Aerodrome Forecast
Issued by NWS

Home | Current Version | Previous Version | Text Only | Print | Product List | Glossary On
Versions: 1 2 3 4 5 6 7 8 9 10 11 12 13 14
000
FTPA31 PHFO 151739
TAFHKO
TAF
PHKO 151739Z 1518/1618 03014KT P6SM FEW060
     FM151900 36018G24KT P6SM FEW025 SCT060
     FM160400 01011KT P6SM FEW025 SCT060
     FM160800 10007KT P6SM FEW060=

USA.gov is the U.S. government's official web portal to all federal, state and local government web resources and services.